createdAt,value
2022-10-31T00:01:23.073Z,1.80
2022-10-31T00:04:45.333Z,1.63
2022-10-31T00:08:07.782Z,1.33
2022-10-31T00:11:30.116Z,1.48
2022-10-31T00:14:52.316Z,1.35
2022-10-31T00:18:14.468Z,1.45
2022-10-31T00:21:36.719Z,1.33
2022-10-31T00:24:58.849Z,1.33
2022-10-31T00:28:21.084Z,0.95
2022-10-31T00:31:43.364Z,1.02
2022-10-31T00:35:06.050Z,1.20
2022-10-31T00:38:28.248Z,0.88
2022-10-31T00:41:50.414Z,1.15
2022-10-31T00:45:12.990Z,1.40
2022-10-31T00:48:35.175Z,1.33
2022-10-31T00:51:57.424Z,1.17
2022-10-31T00:55:19.705Z,1.05
2022-10-31T00:58:41.937Z,1.13
2022-10-31T01:02:04.890Z,0.80
2022-10-31T01:05:27.298Z,0.90
2022-10-31T01:08:49.809Z,1.13
2022-10-31T01:12:12.072Z,1.33
2022-10-31T01:15:35.417Z,1.02
2022-10-31T01:18:57.689Z,0.90
2022-10-31T01:22:21.780Z,0.67
2022-10-31T01:25:44.494Z,0.90
2022-10-31T01:29:08.588Z,1.13
2022-10-31T01:32:31.140Z,0.77
2022-10-31T01:35:54.420Z,0.93
2022-10-31T01:39:16.591Z,1.08
2022-10-31T01:42:39.083Z,0.80
2022-10-31T01:46:01.320Z,0.95
2022-10-31T01:49:23.417Z,0.80
2022-10-31T01:52:51.285Z,0.80
2022-10-31T01:56:17.062Z,1.00
2022-10-31T01:59:43.277Z,0.77
2022-10-31T02:03:08.618Z,0.88
2022-10-31T02:06:41.161Z,1.00
2022-10-31T02:10:04.102Z,1.00
2022-10-31T02:13:26.854Z,0.70
2022-10-31T02:16:49.061Z,0.70
2022-10-31T02:20:26.787Z,0.85
2022-10-31T02:23:58.037Z,0.60
2022-10-31T02:27:32.947Z,0.70
2022-10-31T02:31:26.405Z,0.60
2022-10-31T02:35:05.571Z,0.70
2022-10-31T02:38:43.485Z,0.73
2022-10-31T02:42:16.958Z,0.60
2022-10-31T02:45:51.060Z,0.70
2022-10-31T02:49:27.362Z,0.60
2022-10-31T02:52:53.550Z,0.60
2022-10-31T02:56:18.358Z,0.63
2022-10-31T02:59:48.607Z,0.60
2022-10-31T03:03:43.134Z,0.70
2022-10-31T03:07:36.323Z,0.50
2022-10-31T03:11:01.748Z,0.40
2022-10-31T03:14:36.397Z,0.30
2022-10-31T03:18:09.944Z,0.30
2022-10-31T03:21:40.528Z,0.77
2022-10-31T03:25:05.056Z,0.40
2022-10-31T03:28:32.696Z,0.40
2022-10-31T03:32:08.917Z,0.55
2022-10-31T03:35:33.893Z,0.32
2022-10-31T03:38:59.613Z,0.50
2022-10-31T03:42:29.148Z,0.50
2022-10-31T03:45:51.721Z,0.40
2022-10-31T03:49:15.071Z,0.40
2022-10-31T03:52:49.259Z,0.28
2022-10-31T03:56:20.550Z,0.43
2022-10-31T03:59:48.470Z,0.35
2022-10-31T04:03:43.584Z,0.20
2022-10-31T04:07:09.260Z,0.45
2022-10-31T04:10:33.538Z,0.45
2022-10-31T04:13:57.547Z,0.20
2022-10-31T04:17:23.385Z,0.20
2022-10-31T04:20:49.530Z,0.40
2022-10-31T04:24:12.786Z,0.20
2022-10-31T04:27:35.768Z,0.13
2022-10-31T04:30:58.471Z,0.20
2022-10-31T04:34:20.715Z,0.30
2022-10-31T04:37:42.931Z,0.22
2022-10-31T04:41:05.174Z,0.20
2022-10-31T04:44:43.567Z,0.22
2022-10-31T04:48:05.880Z,0.20
2022-10-31T04:51:30.558Z,0.15
2022-10-31T04:54:52.844Z,0.20
2022-10-31T04:58:35.076Z,0.10
2022-10-31T05:01:59.575Z,0.30
2022-10-31T05:05:38.889Z,0.13
2022-10-31T05:09:01.076Z,0.22
2022-10-31T05:12:24.233Z,0.10
2022-10-31T05:16:21.467Z,0.32
2022-10-31T05:20:10.339Z,0.40
2022-10-31T05:27:19.777Z,0.35
2022-10-31T05:30:42.008Z,0.10
2022-10-31T05:34:08.364Z,0.20
2022-10-31T05:38:03.755Z,0.30
2022-10-31T05:41:27.048Z,0.15
2022-10-31T05:44:58.122Z,0.10
2022-10-31T05:48:29.852Z,0.30
2022-10-31T05:52:30.229Z,0.10
2022-10-31T05:56:02.525Z,0.52
2022-10-31T05:59:25.659Z,0.10
2022-10-31T06:02:49.003Z,0.20
2022-10-31T06:06:22.065Z,0.10
2022-10-31T06:09:44.472Z,0.10
2022-10-31T06:13:07.543Z,0.55
2022-10-31T06:16:34.443Z,0.10
2022-10-31T06:20:12.877Z,0.10
2022-10-31T06:23:46.945Z,0.20
2022-10-31T06:27:41.148Z,0.10
2022-10-31T06:31:08.910Z,0.10
2022-10-31T06:34:31.664Z,0.30
2022-10-31T06:37:57.441Z,0.20
2022-10-31T06:41:28.783Z,0.20
2022-10-31T06:44:52.368Z,0.40
2022-10-31T06:48:46.882Z,0.20
2022-10-31T06:52:15.257Z,0.28
2022-10-31T06:55:37.512Z,0.20
2022-10-31T06:58:59.900Z,0.30
2022-10-31T07:02:42.301Z,0.10
2022-10-31T07:06:04.564Z,0.20
2022-10-31T07:09:27.996Z,0.17
2022-10-31T07:12:57.149Z,0.10
2022-10-31T07:16:19.523Z,0.10
2022-10-31T07:19:42.093Z,0.28
2022-10-31T07:23:06.112Z,0.17
2022-10-31T07:26:28.933Z,0.22
2022-10-31T07:29:51.095Z,0.32
2022-10-31T07:33:13.424Z,0.20
2022-10-31T07:36:54.178Z,0.30
2022-10-31T07:40:17.560Z,0.30
2022-10-31T07:43:39.956Z,0.10
2022-10-31T07:47:14.192Z,0.22
2022-10-31T07:50:56.072Z,0.20
2022-10-31T07:54:36.889Z,0.25
2022-10-31T07:58:09.392Z,0.40
2022-10-31T08:01:34.257Z,0.50
2022-10-31T08:05:19.292Z,0.30
2022-10-31T08:09:00.236Z,0.20
2022-10-31T08:12:22.794Z,0.30
2022-10-31T08:15:45.518Z,0.40
2022-10-31T08:19:07.851Z,0.32
2022-10-31T08:22:33.751Z,0.40
2022-10-31T08:25:58.611Z,0.40
2022-10-31T08:29:20.971Z,0.40
2022-10-31T08:32:43.139Z,0.40
2022-10-31T08:36:23.812Z,0.30
2022-10-31T08:39:48.788Z,0.28
2022-10-31T08:43:16.174Z,0.40
2022-10-31T08:46:38.442Z,0.40
2022-10-31T08:50:00.695Z,0.50
2022-10-31T08:53:23.559Z,0.55
2022-10-31T08:56:57.474Z,0.50
2022-10-31T09:00:35.707Z,0.47
2022-10-31T09:04:12.689Z,0.80
2022-10-31T09:07:34.867Z,0.52
2022-10-31T09:10:58.415Z,0.38
2022-10-31T09:14:40.837Z,0.57
2022-10-31T09:18:17.917Z,0.68
2022-10-31T09:21:45.865Z,0.47
2022-10-31T09:25:08.692Z,0.40
2022-10-31T09:28:33.908Z,0.40
2022-10-31T09:32:03.968Z,0.50
2022-10-31T09:35:30.323Z,0.35
2022-10-31T09:38:53.528Z,0.50
2022-10-31T09:42:38.521Z,0.63
2022-10-31T09:46:15.090Z,0.68
2022-10-31T09:49:55.358Z,0.50
2022-10-31T09:53:31.262Z,0.60
2022-10-31T09:56:53.591Z,0.55
2022-10-31T10:00:19.688Z,0.50
2022-10-31T10:03:50.851Z,0.63
2022-10-31T10:07:53.146Z,0.50
2022-10-31T10:11:47.180Z,0.57
2022-10-31T10:15:44.227Z,0.70
2022-10-31T10:19:18.264Z,0.70
2022-10-31T10:23:02.478Z,0.68
2022-10-31T10:26:54.155Z,0.85
2022-10-31T10:30:36.850Z,0.80
2022-10-31T10:34:20.467Z,0.82
2022-10-31T10:37:45.306Z,0.95
2022-10-31T10:41:22.788Z,0.80
2022-10-31T10:45:08.297Z,0.90
2022-10-31T10:49:00.999Z,0.90
2022-10-31T10:52:50.299Z,1.08
2022-10-31T10:56:22.528Z,1.05
2022-10-31T10:59:46.031Z,1.00
2022-10-31T11:03:09.070Z,1.00
2022-10-31T11:06:31.239Z,1.00
2022-10-31T11:10:04.960Z,1.10
2022-10-31T11:13:28.241Z,1.58
2022-10-31T11:16:55.722Z,1.10
2022-10-31T11:20:19.316Z,1.33
2022-10-31T11:23:41.550Z,1.27
2022-10-31T11:27:21.019Z,1.00
2022-10-31T11:30:49.445Z,0.95
2022-10-31T11:34:25.161Z,1.02
2022-10-31T11:37:49.746Z,1.10
2022-10-31T11:41:28.546Z,1.42
2022-10-31T11:44:52.500Z,1.33
2022-10-31T11:48:21.643Z,1.65
2022-10-31T11:51:44.325Z,1.17
2022-10-31T11:55:35.136Z,1.60
2022-10-31T11:59:00.531Z,1.30
2022-10-31T12:02:23.676Z,1.58
2022-10-31T12:05:48.239Z,1.30
2022-10-31T12:09:29.373Z,1.33
2022-10-31T12:13:09.426Z,1.40
2022-10-31T12:16:41.026Z,1.50
2022-10-31T12:20:32.715Z,1.77
2022-10-31T12:24:28.629Z,1.65
2022-10-31T12:31:25.337Z,1.40
2022-10-31T12:35:13.952Z,2.00
2022-10-31T12:38:36.069Z,1.83
2022-10-31T12:42:33.938Z,1.92
2022-10-31T12:46:00.672Z,1.67
2022-10-31T12:49:36.741Z,2.22
2022-10-31T12:53:08.038Z,2.28
2022-10-31T12:56:40.555Z,2.13
2022-10-31T13:00:17.777Z,2.20
2022-10-31T13:03:48.744Z,2.33
2022-10-31T13:07:17.866Z,1.77
2022-10-31T13:10:51.321Z,1.70
2022-10-31T13:14:38.099Z,1.70
2022-10-31T13:18:15.751Z,2.28
2022-10-31T13:21:43.420Z,2.17
2022-10-31T13:25:11.400Z,2.30
2022-10-31T13:29:00.596Z,2.20
2022-10-31T13:32:22.771Z,1.95
2022-10-31T13:36:16.079Z,2.70
2022-10-31T13:39:56.289Z,2.40
2022-10-31T13:43:36.561Z,2.80
2022-10-31T13:46:59.449Z,2.88
2022-10-31T13:50:26.304Z,2.88
2022-10-31T13:53:58.937Z,2.33
2022-10-31T13:57:39.917Z,2.38
2022-10-31T14:01:21.642Z,2.70
2022-10-31T14:08:22.930Z,2.53
2022-10-31T14:11:48.798Z,2.33
2022-10-31T14:15:19.278Z,2.80
2022-10-31T14:18:46.893Z,3.10
2022-10-31T14:22:22.105Z,3.40
2022-10-31T14:25:44.289Z,2.42
2022-10-31T14:29:18.485Z,3.15
2022-10-31T14:32:40.716Z,2.92
2022-10-31T14:36:20.074Z,2.83
2022-10-31T14:39:45.177Z,2.63
2022-10-31T14:43:31.905Z,2.95
2022-10-31T14:47:03.087Z,2.50
2022-10-31T14:50:41.401Z,2.95
2022-10-31T14:54:05.974Z,3.15
2022-10-31T14:57:35.553Z,2.90
2022-10-31T15:00:58.467Z,2.65
2022-10-31T15:04:25.510Z,2.90
2022-10-31T15:08:06.248Z,2.75
2022-10-31T15:11:28.703Z,2.75
2022-10-31T15:14:51.205Z,3.00
2022-10-31T15:18:25.151Z,3.22
2022-10-31T15:21:47.711Z,2.55
2022-10-31T15:25:22.120Z,2.65
2022-10-31T15:28:44.503Z,2.72
2022-10-31T15:32:26.427Z,2.85
2022-10-31T15:36:04.293Z,2.38
2022-10-31T15:39:27.804Z,2.70
2022-10-31T15:43:01.293Z,2.65
2022-10-31T15:46:23.608Z,2.47
2022-10-31T15:49:57.692Z,2.25
2022-10-31T15:53:31.999Z,2.22
2022-10-31T15:56:54.212Z,2.55
2022-10-31T16:00:42.963Z,2.30
2022-10-31T16:04:25.969Z,2.28
2022-10-31T16:07:52.903Z,2.30
2022-10-31T16:11:17.912Z,2.30
2022-10-31T16:14:42.262Z,2.45
2022-10-31T16:18:06.595Z,2.53
2022-10-31T16:21:35.640Z,2.17
2022-10-31T16:25:23.681Z,1.77
2022-10-31T16:29:02.717Z,2.22
2022-10-31T16:32:57.336Z,2.20
2022-10-31T16:36:35.208Z,2.10
2022-10-31T16:39:57.988Z,1.98
2022-10-31T16:43:23.030Z,2.00
2022-10-31T16:46:45.347Z,1.88
2022-10-31T16:50:23.049Z,1.88
2022-10-31T16:53:46.889Z,2.03
2022-10-31T16:57:17.041Z,2.28
2022-10-31T17:00:39.215Z,1.70
2022-10-31T17:04:02.763Z,1.83
2022-10-31T17:07:24.924Z,1.60
2022-10-31T17:10:50.980Z,1.70
2022-10-31T17:14:13.179Z,1.80
2022-10-31T17:17:35.389Z,1.40
2022-10-31T17:20:59.854Z,1.58
2022-10-31T17:24:22.282Z,1.83
2022-10-31T17:27:47.306Z,2.20
2022-10-31T17:31:30.280Z,2.03
2022-10-31T17:34:52.545Z,1.75
2022-10-31T17:38:14.726Z,1.60
2022-10-31T17:41:36.946Z,1.77
2022-10-31T17:44:59.160Z,1.60
2022-10-31T17:48:21.372Z,1.55
2022-10-31T17:51:43.523Z,1.73
2022-10-31T17:55:05.958Z,1.55
2022-10-31T17:58:28.643Z,1.50
2022-10-31T18:01:51.032Z,1.40
2022-10-31T18:05:13.510Z,1.50
2022-10-31T18:08:38.987Z,1.90
2022-10-31T18:12:01.189Z,1.55
2022-10-31T18:15:23.368Z,1.73
2022-10-31T18:18:49.626Z,1.40
2022-10-31T18:22:12.888Z,1.38
2022-10-31T18:25:35.386Z,1.42
2022-10-31T18:28:57.774Z,1.40
2022-10-31T18:32:19.981Z,1.20
2022-10-31T18:35:42.303Z,1.35
2022-10-31T18:39:04.592Z,1.60
2022-10-31T18:42:26.810Z,1.08
2022-10-31T18:45:52.320Z,1.13
2022-10-31T18:49:22.591Z,2.83
2022-10-31T18:52:44.957Z,3.47
2022-10-31T18:56:09.260Z,13.35
2022-10-31T18:59:31.564Z,72.80
2022-10-31T19:02:56.445Z,138.48
2022-10-31T19:09:41.155Z,114.07
2022-10-31T19:13:04.167Z,114.93
2022-10-31T19:16:27.337Z,103.75
2022-10-31T19:19:49.549Z,97.03
2022-10-31T19:23:11.738Z,97.53
2022-10-31T19:26:34.962Z,91.80
2022-10-31T19:29:57.488Z,92.07
2022-10-31T19:33:19.737Z,83.57
2022-10-31T19:36:42.851Z,81.40
2022-10-31T19:40:06.950Z,77.80
2022-10-31T19:43:29.370Z,73.30
2022-10-31T19:46:54.072Z,64.57
2022-10-31T19:50:16.660Z,53.20
2022-10-31T19:53:39.696Z,59.35
2022-10-31T19:57:01.896Z,57.20
2022-10-31T20:00:24.177Z,52.38
2022-10-31T20:03:47.087Z,34.25
2022-10-31T20:07:09.358Z,37.83
2022-10-31T20:10:31.588Z,43.53
2022-10-31T20:13:58.401Z,44.97
2022-10-31T20:17:20.605Z,45.33
2022-10-31T20:20:43.138Z,38.53
2022-10-31T20:24:07.842Z,39.50
2022-10-31T20:27:30.288Z,37.53
2022-10-31T20:30:53.192Z,37.00
2022-10-31T20:34:15.568Z,33.80
2022-10-31T20:37:37.751Z,35.60
2022-10-31T20:41:01.753Z,32.65
2022-10-31T20:44:09.192Z,33.70
2022-10-31T20:47:31.405Z,32.75
2022-10-31T20:50:58.581Z,29.95
2022-10-31T20:54:20.790Z,28.60
2022-10-31T20:57:43.027Z,28.38
2022-10-31T21:01:11.044Z,26.73
2022-10-31T21:04:33.273Z,26.50
2022-10-31T21:07:55.457Z,24.63
2022-10-31T21:11:21.183Z,24.55
2022-10-31T21:14:43.358Z,23.88
2022-10-31T21:18:05.543Z,21.75
2022-10-31T21:21:32.557Z,21.65
2022-10-31T21:24:54.948Z,20.77
2022-10-31T21:28:17.392Z,19.92
2022-10-31T21:31:40.830Z,19.55
2022-10-31T21:35:03.072Z,18.67
2022-10-31T21:38:25.256Z,18.08
2022-10-31T21:41:47.402Z,17.02
2022-10-31T21:45:09.841Z,17.17
2022-10-31T21:48:33.059Z,17.75
2022-10-31T21:51:55.260Z,14.93
2022-10-31T21:55:17.530Z,15.43
2022-10-31T21:58:39.693Z,15.95
2022-10-31T22:02:02.107Z,12.65
2022-10-31T22:05:24.353Z,13.05
2022-10-31T22:08:46.976Z,13.15
2022-10-31T22:12:09.740Z,13.30
2022-10-31T22:15:31.888Z,12.85
2022-10-31T22:18:56.326Z,11.88
2022-10-31T22:22:18.536Z,11.68
2022-10-31T22:25:40.656Z,10.02
2022-10-31T22:29:06.118Z,10.73
2022-10-31T22:32:28.268Z,10.20
2022-10-31T22:35:50.477Z,10.40
2022-10-31T22:39:13.498Z,10.10
2022-10-31T22:42:35.651Z,9.55
2022-10-31T22:46:00.559Z,8.68
2022-10-31T22:49:22.933Z,9.30
2022-10-31T22:52:45.077Z,9.07
2022-10-31T22:56:09.115Z,8.48
2022-10-31T22:59:31.255Z,9.13
2022-10-31T23:02:53.426Z,7.43
2022-10-31T23:06:21.312Z,6.20
2022-10-31T23:09:43.511Z,5.95
2022-10-31T23:13:24.225Z,6.60
2022-10-31T23:16:47.745Z,6.15
2022-10-31T23:20:10.165Z,6.03
2022-10-31T23:23:37.268Z,6.40
2022-10-31T23:27:10.407Z,6.32
2022-10-31T23:30:32.700Z,5.60
2022-10-31T23:33:54.834Z,5.97
2022-10-31T23:37:18.763Z,5.50
2022-10-31T23:40:42.286Z,5.50
2022-10-31T23:44:04.559Z,5.32
2022-10-31T23:47:26.690Z,5.60
2022-10-31T23:50:48.948Z,4.60
2022-10-31T23:54:11.285Z,4.55
2022-10-31T23:57:33.476Z,5.20
